Time,TemperatureF,DewpointF,PressureIn,WindDirection,WindDirectionDegrees,WindSpeedMPH,WindSpeedGustMPH,Humidity,HourlyPrecipIn,Conditions,Clouds,dailyrainin,SoftwareType,DateUTC
2014-01-06 00:00:00,-10.8,-19.0,30.75,North,32767,4.0,17.0,66,0.00,,,0.00,Wunderground v.1.15,2014-01-06 06:00:00,
2014-01-06 00:10:00,-10.8,-19.0,30.74,North,32767,4.0,17.0,66,0.00,,,0.00,Wunderground v.1.15,2014-01-06 06:10:00,
2014-01-06 00:20:00,-10.9,-19.1,30.74,North,32767,5.0,17.0,66,0.00,,,0.00,Wunderground v.1.15,2014-01-06 06:20:00,
2014-01-06 00:30:00,-11.1,-19.3,30.74,North,32767,4.0,17.0,66,0.00,,,0.00,Wunderground v.1.15,2014-01-06 06:30:00,
2014-01-06 00:40:00,-11.2,-19.1,30.73,North,32767,4.0,4.0,67,0.00,,,0.00,Wunderground v.1.15,2014-01-06 06:40:00,
2014-01-06 00:50:00,-11.5,-18.8,30.73,North,32767,4.0,17.0,69,0.00,,,0.00,Wunderground v.1.15,2014-01-06 06:50:00,
2014-01-06 01:00:00,-11.8,-19.1,30.72,North,32767,4.0,17.0,69,0.00,,,0.00,Wunderground v.1.15,2014-01-06 07:00:00,
2014-01-06 01:10:00,-11.6,-18.7,30.72,North,32767,4.0,17.0,70,0.00,,,0.00,Wunderground v.1.15,2014-01-06 07:10:00,
2014-01-06 01:20:00,-11.7,-18.7,30.72,North,32767,4.0,4.0,70,0.00,,,0.00,Wunderground v.1.15,2014-01-06 07:20:00,
2014-01-06 01:30:00,-11.5,-18.6,30.72,North,32767,3.0,17.0,70,0.00,,,0.00,Wunderground v.1.15,2014-01-06 07:30:00,
2014-01-06 01:40:00,-11.2,-18.3,30.72,North,32767,2.0,17.0,70,0.00,,,0.00,Wunderground v.1.15,2014-01-06 07:40:00,
2014-01-06 01:50:00,-11.3,-18.4,30.72,North,32767,3.0,17.0,70,0.00,,,0.00,Wunderground v.1.15,2014-01-06 07:50:00,
2014-01-06 02:00:00,-11.5,-18.6,30.71,North,32767,2.0,17.0,70,0.00,,,0.00,Wunderground v.1.15,2014-01-06 08:00:00,
2014-01-06 02:10:00,-11.5,-18.3,30.70,North,32767,3.0,17.0,71,0.00,,,0.00,Wunderground v.1.15,2014-01-06 08:10:00,
2014-01-06 02:20:00,-11.3,-18.1,30.71,North,32767,3.0,17.0,71,0.00,,,0.00,Wunderground v.1.15,2014-01-06 08:20:00,
2014-01-06 02:30:00,-11.1,-17.9,30.72,North,32767,4.0,4.0,71,0.00,,,0.00,Wunderground v.1.15,2014-01-06 08:30:00,
2014-01-06 02:40:00,-11.0,-18.1,30.72,North,32767,4.0,4.0,70,0.00,,,0.00,Wunderground v.1.15,2014-01-06 08:40:00,
2014-01-06 02:50:00,-11.1,-18.2,30.72,North,32767,4.0,17.0,70,0.00,,,0.00,Wunderground v.1.15,2014-01-06 08:50:00,
2014-01-06 03:00:00,-10.8,-17.9,30.72,North,32767,5.0,5.0,70,0.00,,,0.00,Wunderground v.1.15,2014-01-06 09:00:00,
2014-01-06 03:10:00,-11.0,-18.1,30.72,North,32767,4.0,4.0,70,0.00,,,0.00,Wunderground v.1.15,2014-01-06 09:10:00,
2014-01-06 03:20:00,-11.0,-18.1,30.71,North,32767,4.0,4.0,70,0.00,,,0.00,Wunderground v.1.15,2014-01-06 09:20:00,
2014-01-06 03:30:00,-11.2,-18.3,30.71,North,32767,3.0,3.0,70,0.00,,,0.00,Wunderground v.1.15,2014-01-06 09:30:00,
2014-01-06 03:40:00,-11.1,-18.2,30.71,North,32767,4.0,4.0,70,0.00,,,0.00,Wunderground v.1.15,2014-01-06 09:40:00,
2014-01-06 03:50:00,-11.5,-18.3,30.71,North,32767,2.0,2.0,71,0.00,,,0.00,Wunderground v.1.15,2014-01-06 09:50:00,
2014-01-06 04:00:00,-11.7,-18.2,30.71,North,32767,2.0,2.0,72,0.00,,,0.00,Wunderground v.1.15,2014-01-06 10:00:00,
2014-01-06 04:10:00,-11.3,-17.8,30.71,North,32767,3.0,10.0,72,0.00,,,0.00,Wunderground v.1.15,2014-01-06 10:10:00,
2014-01-06 04:20:00,-11.1,-17.6,30.72,North,32767,2.0,10.0,72,0.00,,,0.00,Wunderground v.1.15,2014-01-06 10:20:00,
2014-01-06 04:30:00,-10.5,-17.3,30.73,North,32767,3.0,3.0,71,0.00,,,0.00,Wunderground v.1.15,2014-01-06 10:30:00,
2014-01-06 04:40:00,-10.8,-17.9,30.73,North,32767,3.0,10.0,70,0.00,,,0.00,Wunderground v.1.15,2014-01-06 10:40:00,
2014-01-06 04:50:00,-11.2,-18.0,30.73,North,32767,2.0,2.0,71,0.00,,,0.00,Wunderground v.1.15,2014-01-06 10:50:00,
2014-01-06 05:00:00,-11.3,-18.1,30.72,North,32767,2.0,2.0,71,0.00,,,0.00,Wunderground v.1.15,2014-01-06 11:00:00,
2014-01-06 05:20:00,-11.9,-18.7,30.71,North,32767,2.0,10.0,71,0.00,,,0.00,Wunderground v.1.15,2014-01-06 11:20:00,
2014-01-06 05:30:00,-11.8,-18.6,30.71,North,32767,2.0,10.0,71,0.00,,,0.00,Wunderground v.1.15,2014-01-06 11:30:00,
2014-01-06 05:40:00,-11.4,-18.2,30.71,North,32767,2.0,2.0,71,0.00,,,0.00,Wunderground v.1.15,2014-01-06 11:40:00,
2014-01-06 05:50:00,-11.1,-17.9,30.70,North,32767,3.0,10.0,71,0.00,,,0.00,Wunderground v.1.15,2014-01-06 11:50:00,
2014-01-06 06:00:00,-10.9,-18.0,30.71,North,32767,4.0,4.0,70,0.00,,,0.00,Wunderground v.1.15,2014-01-06 12:00:00,
2014-01-06 06:10:00,-10.6,-17.7,30.71,North,32767,3.0,10.0,70,0.00,,,0.00,Wunderground v.1.15,2014-01-06 12:10:00,
2014-01-06 06:20:00,-11.0,-18.1,30.71,North,32767,3.0,3.0,70,0.00,,,0.00,Wunderground v.1.15,2014-01-06 12:20:00,
2014-01-06 06:30:00,-11.1,-18.2,30.71,North,32767,3.0,10.0,70,0.00,,,0.00,Wunderground v.1.15,2014-01-06 12:30:00,
2014-01-06 06:40:00,-11.1,-18.2,30.71,North,32767,3.0,10.0,70,0.00,,,0.00,Wunderground v.1.15,2014-01-06 12:40:00,
2014-01-06 06:50:00,-10.9,-18.0,30.71,North,32767,3.0,10.0,70,0.00,,,0.00,Wunderground v.1.15,2014-01-06 12:50:00,
2014-01-06 07:00:00,-10.7,-17.8,30.71,North,32767,4.0,10.0,70,0.00,,,0.00,Wunderground v.1.15,2014-01-06 13:00:00,
2014-01-06 07:10:00,-10.8,-17.9,30.71,North,32767,4.0,10.0,70,0.00,,,0.00,Wunderground v.1.15,2014-01-06 13:10:00,
2014-01-06 07:20:00,-11.0,-18.1,30.72,North,32767,4.0,10.0,70,0.00,,,0.00,Wunderground v.1.15,2014-01-06 13:20:00,
2014-01-06 07:30:00,-10.8,-17.9,30.72,North,32767,4.0,10.0,70,0.00,,,0.00,Wunderground v.1.15,2014-01-06 13:30:00,
2014-01-06 07:40:00,-10.5,-17.9,30.72,North,32767,4.0,4.0,69,0.00,,,0.00,Wunderground v.1.15,2014-01-06 13:40:00,
2014-01-06 07:50:00,-10.4,-17.8,30.72,North,32767,2.0,2.0,69,0.00,,,0.00,Wunderground v.1.15,2014-01-06 13:50:00,
2014-01-06 08:00:00,-10.3,-17.4,30.73,North,32767,2.0,10.0,70,0.00,,,0.00,Wunderground v.1.15,2014-01-06 14:00:00,
2014-01-06 08:10:00,-10.1,-17.5,30.73,North,32767,2.0,2.0,69,0.00,,,0.00,Wunderground v.1.15,2014-01-06 14:10:00,
2014-01-06 08:30:00,-9.6,-17.0,30.74,North,32767,4.0,4.0,69,0.00,,,0.00,Wunderground v.1.15,2014-01-06 14:30:00,
2014-01-06 08:40:00,-9.2,-16.6,30.74,North,32767,4.0,4.0,69,0.00,,,0.00,Wunderground v.1.15,2014-01-06 14:40:00,
2014-01-06 08:50:00,-8.2,-15.7,30.75,North,32767,4.0,10.0,69,0.00,,,0.00,Wunderground v.1.15,2014-01-06 14:50:00,
2014-01-06 09:00:00,-7.0,-15.1,30.75,North,32767,4.0,10.0,67,0.00,,,0.00,Wunderground v.1.15,2014-01-06 15:00:00,
2014-01-06 09:10:00,-5.8,-14.5,30.75,North,32767,5.0,5.0,65,0.00,,,0.00,Wunderground v.1.15,2014-01-06 15:10:00,
2014-01-06 09:20:00,-5.1,-14.2,30.75,North,32767,5.0,10.0,64,0.00,,,0.00,Wunderground v.1.15,2014-01-06 15:20:00,
2014-01-06 09:30:00,-4.1,-13.5,30.75,North,32767,5.0,5.0,63,0.00,,,0.00,Wunderground v.1.15,2014-01-06 15:30:00,
2014-01-06 09:40:00,-3.2,-12.7,30.75,North,32767,6.0,6.0,63,0.00,,,0.00,Wunderground v.1.15,2014-01-06 15:40:00,
2014-01-06 09:50:00,-2.4,-12.6,30.75,North,32767,7.0,7.0,61,0.00,,,0.00,Wunderground v.1.15,2014-01-06 15:50:00,
2014-01-06 10:00:00,-1.9,-12.1,30.75,North,32767,7.0,11.0,61,0.00,,,0.00,Wunderground v.1.15,2014-01-06 16:00:00,
2014-01-06 10:10:00,-1.4,-11.6,30.76,North,32767,8.0,13.0,61,0.00,,,0.00,Wunderground v.1.15,2014-01-06 16:10:00,
2014-01-06 10:20:00,-1.1,-11.7,30.76,North,32767,11.0,11.0,60,0.00,,,0.00,Wunderground v.1.15,2014-01-06 16:20:00,
2014-01-06 10:30:00,0.3,-10.0,30.76,North,32767,8.0,13.0,61,0.00,,,0.00,Wunderground v.1.15,2014-01-06 16:30:00,
2014-01-06 10:40:00,0.3,-11.0,30.77,North,32767,10.0,10.0,58,0.00,,,0.00,Wunderground v.1.15,2014-01-06 16:40:00,
2014-01-06 10:50:00,0.6,-10.7,30.76,North,32767,10.0,10.0,58,0.00,,,0.00,Wunderground v.1.15,2014-01-06 16:50:00,
2014-01-06 11:00:00,1.3,-9.7,30.76,North,32767,11.0,17.0,59,0.00,,,0.00,Wunderground v.1.15,2014-01-06 17:00:00,
2014-01-06 11:10:00,1.5,-10.2,30.76,North,32767,13.0,13.0,57,0.00,,,0.00,Wunderground v.1.15,2014-01-06 17:10:00,
2014-01-06 11:20:00,2.1,-10.0,30.75,North,32767,12.0,12.0,56,0.00,,,0.00,Wunderground v.1.15,2014-01-06 17:20:00,
2014-01-06 11:30:00,2.3,-10.2,30.74,North,32767,11.0,11.0,55,0.00,,,0.00,Wunderground v.1.15,2014-01-06 17:30:00,
2014-01-06 11:40:00,2.9,-9.6,30.74,North,32767,12.0,12.0,55,0.00,,,0.00,Wunderground v.1.15,2014-01-06 17:40:00,
2014-01-06 11:50:00,3.4,-9.5,30.73,North,32767,13.0,13.0,54,0.00,,,0.00,Wunderground v.1.15,2014-01-06 17:50:00,
2014-01-06 12:00:00,4.2,-9.2,30.72,North,32767,10.0,13.0,53,0.00,,,0.00,Wunderground v.1.15,2014-01-06 18:00:00,
2014-01-06 12:10:00,4.4,-9.4,30.72,North,32767,11.0,14.0,52,0.00,,,0.00,Wunderground v.1.15,2014-01-06 18:10:00,
2014-01-06 12:20:00,5.6,-7.9,30.71,North,32767,9.0,9.0,53,0.00,,,0.00,Wunderground v.1.15,2014-01-06 18:20:00,
2014-01-06 12:30:00,5.8,-8.9,30.70,North,32767,9.0,9.0,50,0.00,,,0.00,Wunderground v.1.15,2014-01-06 18:30:00,
2014-01-06 12:40:00,6.1,-8.6,30.70,North,32767,9.0,9.0,50,0.00,,,0.00,Wunderground v.1.15,2014-01-06 18:40:00,
2014-01-06 12:50:00,6.3,-8.0,30.69,North,32767,9.0,13.0,51,0.00,,,0.00,Wunderground v.1.15,2014-01-06 18:50:00,
2014-01-06 13:00:00,7.0,-7.8,30.68,North,32767,7.0,7.0,50,0.00,,,0.00,Wunderground v.1.15,2014-01-06 19:00:00,
2014-01-06 13:10:00,7.8,-6.2,30.67,North,32767,5.0,14.0,52,0.00,,,0.00,Wunderground v.1.15,2014-01-06 19:10:00,
2014-01-06 13:20:00,8.0,-7.7,30.67,North,32767,7.0,10.0,48,0.00,,,0.00,Wunderground v.1.15,2014-01-06 19:20:00,
2014-01-06 13:30:00,7.9,-7.8,30.66,North,32767,6.0,10.0,48,0.00,,,0.00,Wunderground v.1.15,2014-01-06 19:30:00,
2014-01-06 13:40:00,8.9,-6.8,30.66,North,32767,5.0,10.0,48,0.00,,,0.00,Wunderground v.1.15,2014-01-06 19:40:00,
2014-01-06 13:50:00,9.5,-7.2,30.66,North,32767,6.0,6.0,46,0.00,,,0.00,Wunderground v.1.15,2014-01-06 19:50:00,
2014-01-06 14:00:00,10.0,-7.6,30.65,North,32767,5.0,10.0,44,0.00,,,0.00,Wunderground v.1.15,2014-01-06 20:00:00,
2014-01-06 14:10:00,10.6,-6.6,30.65,North,32767,5.0,5.0,45,0.00,,,0.00,Wunderground v.1.15,2014-01-06 20:10:00,
2014-01-06 14:20:00,11.1,-6.6,30.64,North,32767,5.0,5.0,44,0.00,,,0.00,Wunderground v.1.15,2014-01-06 20:20:00,
2014-01-06 14:30:00,11.6,-6.6,30.64,North,32767,6.0,10.0,43,0.00,,,0.00,Wunderground v.1.15,2014-01-06 20:30:00,
2014-01-06 14:40:00,12.1,-5.7,30.64,North,32767,4.0,10.0,44,0.00,,,0.00,Wunderground v.1.15,2014-01-06 20:40:00,
2014-01-06 14:50:00,12.4,-6.9,30.64,North,32767,6.0,6.0,41,0.00,,,0.00,Wunderground v.1.15,2014-01-06 20:50:00,
2014-01-06 15:00:00,12.7,-7.1,30.64,North,32767,5.0,10.0,40,0.00,,,0.00,Wunderground v.1.15,2014-01-06 21:00:00,
2014-01-06 15:10:00,13.3,-6.1,30.63,North,32767,5.0,10.0,41,0.00,,,0.00,Wunderground v.1.15,2014-01-06 21:10:00,
2014-01-06 15:20:00,13.9,-5.5,30.63,North,32767,4.0,10.0,41,0.00,,,0.00,Wunderground v.1.15,2014-01-06 21:20:00,
2014-01-06 15:30:00,14.3,-6.2,30.63,North,32767,4.0,4.0,39,0.00,,,0.00,Wunderground v.1.15,2014-01-06 21:30:00,
2014-01-06 15:40:00,14.3,-6.2,30.62,North,32767,5.0,10.0,39,0.00,,,0.00,Wunderground v.1.15,2014-01-06 21:40:00,
2014-01-06 15:50:00,14.7,-5.3,30.62,North,32767,5.0,5.0,40,0.00,,,0.00,Wunderground v.1.15,2014-01-06 21:50:00,
2014-01-06 16:00:00,14.8,-5.7,30.62,North,32767,4.0,4.0,39,0.00,,,0.00,Wunderground v.1.15,2014-01-06 22:00:00,
2014-01-06 16:10:00,15.2,-5.4,30.61,North,32767,2.0,10.0,39,0.00,,,0.00,Wunderground v.1.15,2014-01-06 22:10:00,
2014-01-06 16:20:00,15.5,-5.1,30.61,North,32767,2.0,2.0,39,0.00,,,0.00,Wunderground v.1.15,2014-01-06 22:20:00,
2014-01-06 16:30:00,15.6,-5.0,30.61,North,32767,2.0,10.0,39,0.00,,,0.00,Wunderground v.1.15,2014-01-06 22:30:00,
2014-01-06 16:40:00,15.6,-5.0,30.60,North,32767,2.0,2.0,39,0.00,,,0.00,Wunderground v.1.15,2014-01-06 22:40:00,
2014-01-06 16:50:00,15.1,-4.9,30.60,North,32767,1.0,1.0,40,0.00,,,0.00,Wunderground v.1.15,2014-01-06 22:50:00,
2014-01-06 17:00:00,14.7,-4.8,30.59,North,32767,0.0,10.0,41,0.00,,,0.00,Wunderground v.1.15,2014-01-06 23:00:00,
2014-01-06 17:10:00,14.5,-4.5,30.59,North,32767,0.0,10.0,42,0.00,,,0.00,Wunderground v.1.15,2014-01-06 23:10:00,
2014-01-06 17:20:00,13.9,-4.5,30.59,North,32767,0.0,10.0,43,0.00,,,0.00,Wunderground v.1.15,2014-01-06 23:20:00,
2014-01-06 17:30:00,13.5,-5.4,30.58,North,32767,0.0,10.0,42,0.00,,,0.00,Wunderground v.1.15,2014-01-06 23:30:00,
2014-01-06 17:40:00,12.6,-5.2,30.58,North,32767,1.0,10.0,44,0.00,,,0.00,Wunderground v.1.15,2014-01-06 23:40:00,
2014-01-06 17:50:00,11.0,-5.3,30.58,North,32767,2.0,10.0,47,0.00,,,0.00,Wunderground v.1.15,2014-01-06 23:50:00,
2014-01-06 18:00:00,10.2,-5.2,30.58,North,32767,1.0,1.0,49,0.00,,,0.00,Wunderground v.1.15,2014-01-07 00:00:00,
2014-01-06 18:10:00,10.0,-4.6,30.57,North,32767,2.0,4.0,51,0.00,,,0.00,Wunderground v.1.15,2014-01-07 00:10:00,
2014-01-06 18:20:00,9.5,-5.0,30.57,North,32767,4.0,4.0,51,0.00,,,0.00,Wunderground v.1.15,2014-01-07 00:20:00,
2014-01-06 18:30:00,9.2,-4.1,30.57,North,32767,1.0,1.0,54,0.00,,,0.00,Wunderground v.1.15,2014-01-07 00:30:00,
2014-01-06 18:40:00,9.3,-4.0,30.57,North,32767,2.0,2.0,54,0.00,,,0.00,Wunderground v.1.15,2014-01-07 00:40:00,
2014-01-06 18:50:00,8.8,-3.7,30.57,North,32767,2.0,2.0,56,0.00,,,0.00,Wunderground v.1.15,2014-01-07 00:50:00,
2014-01-06 19:00:00,8.6,-3.2,30.57,North,32767,0.0,5.0,58,0.00,,,0.00,Wunderground v.1.15,2014-01-07 01:00:00,
2014-01-06 19:10:00,8.9,-2.9,30.56,North,32767,1.0,5.0,58,0.00,,,0.00,Wunderground v.1.15,2014-01-07 01:10:00,
2014-01-06 19:20:00,9.3,-2.5,30.56,North,32767,3.0,5.0,58,0.00,,,0.00,Wunderground v.1.15,2014-01-07 01:20:00,
2014-01-06 19:30:00,9.4,-2.8,30.55,North,32767,4.0,5.0,57,0.00,,,0.00,Wunderground v.1.15,2014-01-07 01:30:00,
2014-01-06 19:40:00,8.9,-2.5,30.54,North,32767,5.0,5.0,59,0.00,,,0.00,Wunderground v.1.15,2014-01-07 01:40:00,
2014-01-06 19:50:00,8.7,-2.4,30.53,North,32767,4.0,6.0,60,0.00,,,0.00,Wunderground v.1.15,2014-01-07 01:50:00,
2014-01-06 20:00:00,8.6,-2.1,30.53,North,32767,5.0,5.0,61,0.00,,,0.00,Wunderground v.1.15,2014-01-07 02:00:00,
2014-01-06 20:10:00,8.5,-1.9,30.52,North,32767,4.0,4.0,62,0.00,,,0.00,Wunderground v.1.15,2014-01-07 02:10:00,
2014-01-06 20:20:00,8.3,-2.1,30.52,North,32767,4.0,5.0,62,0.00,,,0.00,Wunderground v.1.15,2014-01-07 02:20:00,
2014-01-06 20:30:00,8.1,-1.9,30.51,North,32767,3.0,5.0,63,0.00,,,0.00,Wunderground v.1.15,2014-01-07 02:30:00,
2014-01-06 20:40:00,8.1,-1.9,30.51,North,32767,3.0,3.0,63,0.00,,,0.00,Wunderground v.1.15,2014-01-07 02:40:00,
2014-01-06 20:50:00,8.1,-1.6,30.51,North,32767,5.0,5.0,64,0.00,,,0.00,Wunderground v.1.15,2014-01-07 02:50:00,
2014-01-06 21:00:00,8.1,-1.6,30.51,North,32767,4.0,4.0,64,0.00,,,0.00,Wunderground v.1.15,2014-01-07 03:00:00,
2014-01-06 21:10:00,8.7,-0.7,30.50,North,32767,5.0,5.0,65,0.00,,,0.00,Wunderground v.1.15,2014-01-07 03:10:00,
2014-01-06 21:20:00,9.2,-0.2,30.49,North,32767,6.0,8.0,65,0.00,,,0.00,Wunderground v.1.15,2014-01-07 03:20:00,
2014-01-06 21:30:00,9.6,0.2,30.48,North,32767,6.0,6.0,65,0.00,,,0.00,Wunderground v.1.15,2014-01-07 03:30:00,
2014-01-06 21:40:00,10.1,0.3,30.47,North,32767,5.0,5.0,64,0.00,,,0.00,Wunderground v.1.15,2014-01-07 03:40:00,
2014-01-06 21:50:00,10.7,0.9,30.47,North,32767,5.0,5.0,64,0.00,,,0.00,Wunderground v.1.15,2014-01-07 03:50:00,
2014-01-06 22:00:00,11.1,0.9,30.45,North,32767,6.0,6.0,63,0.00,,,0.00,Wunderground v.1.15,2014-01-07 04:00:00,
2014-01-06 22:10:00,11.4,0.9,30.45,North,32767,5.0,5.0,62,0.00,,,0.00,Wunderground v.1.15,2014-01-07 04:10:00,
2014-01-06 22:20:00,11.6,1.1,30.45,North,32767,5.0,7.0,62,0.00,,,0.00,Wunderground v.1.15,2014-01-07 04:20:00,
2014-01-06 22:30:00,12.8,1.9,30.43,North,32767,8.0,8.0,61,0.00,,,0.00,Wunderground v.1.15,2014-01-07 04:30:00,
2014-01-06 22:40:00,12.4,1.5,30.43,North,32767,7.0,7.0,61,0.00,,,0.00,Wunderground v.1.15,2014-01-07 04:40:00,
2014-01-06 22:50:00,11.8,0.9,30.43,North,32767,6.0,6.0,61,0.00,,,0.00,Wunderground v.1.15,2014-01-07 04:50:00,
2014-01-06 23:00:00,11.4,0.9,30.43,North,32767,5.0,5.0,62,0.00,,,0.00,Wunderground v.1.15,2014-01-07 05:00:00,
2014-01-06 23:10:00,11.1,0.9,30.42,North,32767,5.0,5.0,63,0.00,,,0.00,Wunderground v.1.15,2014-01-07 05:10:00,
2014-01-06 23:20:00,11.5,1.3,30.41,North,32767,5.0,5.0,63,0.00,,,0.00,Wunderground v.1.15,2014-01-07 05:20:00,
2014-01-06 23:30:00,11.9,1.7,30.41,North,32767,5.0,5.0,63,0.00,,,0.00,Wunderground v.1.15,2014-01-07 05:30:00,
2014-01-06 23:50:00,11.1,0.9,30.39,North,32767,5.0,6.0,63,0.00,,,0.00,Wunderground v.1.15,2014-01-07 05:50:00,